createdAt,value
2022-09-23T00:01:50.760Z,9.88
2022-09-23T00:05:29.070Z,9.87
2022-09-23T00:09:04.368Z,9.87
2022-09-23T00:12:43.333Z,9.86
2022-09-23T00:16:26.439Z,9.85
2022-09-23T00:19:55.742Z,9.86
2022-09-23T00:23:32.307Z,9.85
2022-09-23T00:27:08.154Z,9.85
2022-09-23T00:30:45.301Z,9.84
2022-09-23T00:34:21.718Z,9.84
2022-09-23T00:37:58.796Z,9.82
2022-09-23T00:41:54.328Z,9.82
2022-09-23T00:45:12.452Z,9.79
2022-09-23T00:48:55.946Z,9.78
2022-09-23T00:52:26.360Z,9.73
2022-09-23T00:56:07.501Z,9.70
2022-09-23T00:59:39.898Z,9.68
2022-09-23T01:03:18.509Z,9.61
2022-09-23T01:06:53.128Z,9.61
2022-09-23T01:10:45.522Z,9.61
2022-09-23T01:14:34.634Z,9.64
2022-09-23T01:18:14.186Z,9.62
2022-09-23T01:21:45.514Z,9.60
2022-09-23T01:25:22.337Z,9.56
2022-09-23T01:28:52.611Z,9.55
2022-09-23T01:32:35.825Z,9.54
2022-09-23T01:36:24.243Z,9.53
2022-09-23T01:39:33.697Z,9.52
2022-09-23T01:43:16.399Z,9.51
2022-09-23T01:46:49.451Z,9.49
2022-09-23T01:50:54.100Z,9.50
2022-09-23T01:54:11.653Z,9.49
2022-09-23T01:57:46.095Z,9.49
2022-09-23T02:01:19.348Z,9.48
2022-09-23T02:05:09.841Z,9.46
2022-09-23T02:08:31.759Z,9.44
2022-09-23T02:12:09.150Z,9.44
2022-09-23T02:15:45.202Z,9.44
2022-09-23T02:19:18.863Z,9.43
2022-09-23T02:23:03.440Z,9.40
2022-09-23T02:26:29.660Z,9.39
2022-09-23T02:30:12.968Z,9.36
2022-09-23T02:37:57.129Z,9.32
2022-09-23T02:41:02.520Z,9.33
2022-09-23T02:44:33.568Z,9.35
2022-09-23T02:48:18.968Z,9.37
2022-09-23T02:51:49.219Z,9.39
2022-09-23T02:55:25.653Z,9.42
2022-09-23T02:59:01.142Z,9.42
2022-09-23T03:03:01.650Z,9.43
2022-09-23T03:06:40.246Z,9.43
2022-09-23T03:10:25.131Z,9.42
2022-09-23T03:13:55.144Z,9.43
2022-09-23T03:17:20.280Z,9.44
2022-09-23T03:20:49.638Z,9.47
2022-09-23T03:24:25.012Z,9.50
2022-09-23T03:28:01.063Z,9.49
2022-09-23T03:31:37.485Z,9.43
2022-09-23T03:35:15.383Z,9.38
2022-09-23T03:42:30.249Z,9.35
2022-09-23T03:46:03.118Z,9.34
2022-09-23T03:49:42.588Z,9.34
2022-09-23T03:53:18.280Z,9.36
2022-09-23T03:56:52.930Z,9.36
2022-09-23T04:00:29.930Z,9.38
2022-09-23T04:04:06.599Z,9.41
2022-09-23T04:07:43.238Z,9.41
2022-09-23T04:11:20.321Z,9.40
2022-09-23T04:14:56.875Z,9.39
2022-09-23T04:18:33.622Z,9.38
2022-09-23T04:22:11.081Z,9.38
2022-09-23T04:25:48.667Z,9.39
2022-09-23T04:29:25.590Z,9.38
2022-09-23T04:33:03.464Z,9.38
2022-09-23T04:36:40.308Z,9.38
2022-09-23T04:40:14.631Z,9.36
2022-09-23T04:43:51.417Z,9.36
2022-09-23T04:47:28.425Z,9.37
2022-09-23T04:51:12.309Z,9.36
2022-09-23T04:54:41.854Z,9.34
2022-09-23T04:58:18.812Z,9.31
2022-09-23T05:01:55.853Z,9.32
2022-09-23T05:05:32.380Z,9.30
2022-09-23T05:09:09.453Z,9.30
2022-09-23T05:12:45.733Z,9.29
2022-09-23T05:16:23.599Z,9.29
2022-09-23T05:19:59.819Z,9.29
2022-09-23T05:23:36.595Z,9.31
2022-09-23T05:27:12.923Z,9.30
2022-09-23T05:30:49.567Z,9.36
2022-09-23T05:34:26.843Z,9.41
2022-09-23T05:38:03.464Z,9.47
2022-09-23T05:41:42.312Z,9.55
2022-09-23T05:45:20.917Z,9.62
2022-09-23T05:48:57.616Z,9.68
2022-09-23T05:52:31.619Z,9.80
2022-09-23T05:56:08.285Z,9.98
2022-09-23T05:59:47.929Z,10.16
2022-09-23T06:03:21.197Z,10.32
2022-09-23T06:10:39.212Z,10.72
2022-09-23T06:14:14.884Z,10.94
2022-09-23T06:17:50.814Z,11.18
2022-09-23T06:21:24.773Z,11.42
2022-09-23T06:25:01.397Z,11.62
2022-09-23T06:28:40.604Z,11.64
2022-09-23T06:32:15.044Z,11.42
2022-09-23T06:36:00.044Z,11.33
2022-09-23T06:39:30.114Z,11.51
2022-09-23T06:43:05.539Z,11.54
2022-09-23T06:46:42.681Z,11.35
2022-09-23T06:50:19.117Z,11.16
2022-09-23T06:53:56.509Z,11.00
2022-09-23T06:57:33.659Z,11.16
2022-09-23T07:01:18.244Z,11.23
2022-09-23T07:04:46.093Z,11.59
2022-09-23T07:08:24.022Z,11.97
2022-09-23T07:11:59.810Z,12.44
2022-09-23T07:15:36.835Z,12.85
2022-09-23T07:19:13.761Z,12.91
2022-09-23T07:22:52.497Z,12.99
2022-09-23T07:26:27.052Z,12.99
2022-09-23T07:30:04.235Z,12.81
2022-09-23T07:33:44.447Z,12.65
2022-09-23T07:37:18.924Z,12.81
2022-09-23T07:40:54.207Z,13.16
2022-09-23T07:44:32.141Z,13.06
2022-09-23T07:51:48.948Z,12.70
2022-09-23T07:55:21.425Z,12.58
2022-09-23T07:59:01.943Z,12.57
2022-09-23T08:02:35.423Z,12.60
2022-09-23T08:06:13.726Z,12.65
2022-09-23T08:09:48.725Z,12.65
2022-09-23T08:13:25.329Z,12.59
2022-09-23T08:17:02.205Z,12.51
2022-09-23T08:20:47.138Z,12.51
2022-09-23T08:24:18.721Z,12.46
2022-09-23T08:27:52.624Z,12.41
2022-09-23T08:31:30.005Z,12.41
2022-09-23T08:35:06.712Z,12.45
2022-09-23T08:42:30.337Z,12.57
2022-09-23T08:46:02.999Z,12.62
2022-09-23T08:49:41.765Z,12.68
2022-09-23T08:53:35.882Z,12.73
2022-09-23T08:56:52.474Z,12.79
2022-09-23T09:00:33.431Z,12.87
2022-09-23T09:04:03.197Z,12.94
2022-09-23T09:07:40.743Z,13.00
2022-09-23T09:11:15.638Z,13.05
2022-09-23T09:15:08.141Z,13.12
2022-09-23T09:18:31.480Z,13.13
2022-09-23T09:22:12.230Z,13.14
2022-09-23T09:26:01.573Z,13.18
2022-09-23T09:29:41.579Z,13.27
2022-09-23T09:33:07.021Z,13.35
2022-09-23T09:36:50.215Z,13.42
2022-09-23T09:40:20.549Z,13.46
2022-09-23T09:43:57.898Z,13.55
2022-09-23T09:47:53.261Z,13.68
2022-09-23T09:51:27.811Z,13.89
2022-09-23T09:54:43.910Z,14.05
2022-09-23T09:58:19.901Z,14.29
2022-09-23T10:02:24.884Z,14.44
2022-09-23T10:05:45.074Z,14.53
2022-09-23T10:09:19.573Z,14.67
2022-09-23T10:13:21.203Z,14.75
2022-09-23T10:17:24.628Z,14.80
2022-09-23T10:21:17.868Z,14.83
2022-09-23T10:24:39.154Z,14.83
2022-09-23T10:28:38.955Z,14.81
2022-09-23T10:31:47.776Z,14.83
2022-09-23T10:35:26.739Z,14.86
2022-09-23T10:39:22.532Z,14.88
2022-09-23T10:43:37.290Z,14.92
2022-09-23T10:46:39.799Z,14.92
2022-09-23T10:50:47.116Z,14.90
2022-09-23T10:53:49.752Z,14.89
2022-09-23T10:57:44.986Z,14.86
2022-09-23T11:01:44.984Z,14.82
2022-09-23T11:05:11.793Z,14.83
2022-09-23T11:08:44.047Z,14.86
2022-09-23T11:12:47.326Z,14.90
2022-09-23T11:16:14.453Z,14.95
2022-09-23T11:19:34.252Z,14.98
2022-09-23T11:23:19.066Z,14.98
2022-09-23T11:27:12.441Z,14.94
2022-09-23T11:30:20.635Z,14.90
2022-09-23T11:33:58.128Z,14.81
2022-09-23T11:37:36.824Z,14.77
2022-09-23T11:41:36.660Z,14.73
2022-09-23T11:44:58.743Z,14.71
2022-09-23T11:48:37.716Z,14.68
2022-09-23T11:52:11.112Z,14.64
2022-09-23T11:55:57.119Z,14.62
2022-09-23T11:59:39.395Z,14.63
2022-09-23T12:03:18.318Z,14.62
2022-09-23T12:06:41.599Z,14.62
2022-09-23T12:10:08.928Z,14.63
2022-09-23T12:14:12.536Z,14.68
2022-09-23T12:17:27.701Z,14.72
2022-09-23T12:21:53.049Z,14.76
2022-09-23T12:25:33.624Z,14.80
2022-09-23T12:28:50.976Z,14.81
2022-09-23T12:32:25.061Z,14.83
2022-09-23T12:36:10.197Z,14.83
2022-09-23T12:39:40.054Z,14.81
2022-09-23T12:43:35.012Z,14.77
2022-09-23T12:47:48.237Z,14.72
2022-09-23T12:51:27.203Z,14.68
2022-09-23T12:55:33.649Z,14.67
2022-09-23T12:58:57.036Z,14.66
2022-09-23T13:02:37.691Z,14.63
2022-09-23T13:06:17.171Z,14.60
2022-09-23T13:09:31.997Z,14.56
2022-09-23T13:13:07.441Z,14.54
2022-09-23T13:16:45.762Z,14.51
2022-09-23T13:20:22.362Z,14.49
2022-09-23T13:24:18.834Z,14.47
2022-09-23T13:27:34.331Z,14.46
2022-09-23T13:31:17.330Z,14.44
2022-09-23T13:34:58.950Z,14.44
2022-09-23T13:38:26.411Z,14.43
2022-09-23T13:42:06.039Z,14.40
2022-09-23T13:45:43.328Z,14.39
2022-09-23T13:49:37.549Z,14.34
2022-09-23T13:53:01.540Z,14.31
2022-09-23T13:56:30.334Z,14.30
2022-09-23T14:00:21.304Z,14.25
2022-09-23T14:03:41.154Z,14.20
2022-09-23T14:07:19.693Z,14.16
2022-09-23T14:10:55.846Z,14.15
2022-09-23T14:14:31.831Z,14.18
2022-09-23T14:18:08.750Z,14.18
2022-09-23T14:21:49.460Z,14.19
2022-09-23T14:25:21.930Z,14.18
2022-09-23T14:28:58.471Z,14.16
2022-09-23T14:32:35.603Z,14.10
2022-09-23T14:36:35.229Z,14.07
2022-09-23T14:39:54.539Z,14.03
2022-09-23T14:43:28.671Z,13.99
2022-09-23T14:47:02.201Z,13.96
2022-09-23T14:50:43.676Z,13.92
2022-09-23T14:54:40.692Z,13.90
2022-09-23T15:08:38.225Z,13.84
2022-09-23T15:12:31.993Z,13.80
2022-09-23T15:15:33.683Z,13.74
2022-09-23T15:19:18.566Z,13.73
2022-09-23T15:22:48.725Z,13.71
2022-09-23T15:26:23.297Z,13.70
2022-09-23T15:30:15.710Z,13.68
2022-09-23T15:33:35.947Z,13.64
2022-09-23T15:37:15.366Z,13.61
2022-09-23T15:40:49.587Z,13.61
2022-09-23T15:44:29.915Z,13.60
2022-09-23T15:48:32.080Z,13.59
2022-09-23T15:51:39.713Z,13.58
2022-09-23T15:55:23.805Z,13.55
2022-09-23T15:58:53.617Z,13.53
2022-09-23T16:02:32.784Z,13.52
2022-09-23T16:06:13.580Z,13.50
2022-09-23T16:09:43.615Z,13.48
2022-09-23T16:13:20.324Z,13.46
2022-09-23T16:16:57.848Z,13.46
2022-09-23T16:20:38.103Z,13.45
2022-09-23T16:24:19.011Z,13.44
2022-09-23T16:27:50.260Z,13.42
2022-09-23T16:31:26.968Z,13.39
2022-09-23T16:35:01.316Z,13.37
2022-09-23T16:39:01.373Z,13.40
2022-09-23T16:42:14.783Z,13.39
2022-09-23T16:45:51.662Z,13.34
2022-09-23T16:49:28.896Z,13.31
2022-09-23T16:53:05.112Z,13.30
2022-09-23T16:56:44.556Z,13.28
2022-09-23T17:00:37.634Z,13.29
2022-09-23T17:03:55.421Z,13.28
2022-09-23T17:07:32.543Z,13.28
2022-09-23T17:11:11.097Z,13.29
2022-09-23T17:14:45.940Z,13.29
2022-09-23T17:18:22.903Z,13.31
2022-09-23T17:21:59.685Z,13.30
2022-09-23T17:25:36.312Z,13.26
2022-09-23T17:29:13.925Z,13.21
2022-09-23T17:32:49.872Z,13.18
2022-09-23T17:36:27.479Z,13.16
2022-09-23T17:40:06.182Z,13.15
2022-09-23T17:43:40.887Z,13.15
2022-09-23T17:47:16.974Z,13.13
2022-09-23T17:51:03.412Z,13.12
2022-09-23T17:54:32.190Z,13.12
2022-09-23T17:58:07.331Z,13.15
2022-09-23T18:01:44.214Z,13.17
2022-09-23T18:05:22.374Z,13.17
2022-09-23T18:09:01.467Z,13.16
2022-09-23T18:12:34.583Z,13.14
2022-09-23T18:16:11.726Z,13.14
2022-09-23T18:19:49.552Z,13.11
2022-09-23T18:23:28.043Z,13.08
2022-09-23T18:27:02.170Z,13.06
2022-09-23T18:30:38.539Z,13.04
2022-09-23T18:34:16.887Z,13.02
2022-09-23T18:37:52.199Z,13.00
2022-09-23T18:41:29.197Z,12.93
2022-09-23T18:45:05.747Z,12.87
2022-09-23T18:49:23.499Z,12.80
2022-09-23T18:52:41.752Z,12.78
2022-09-23T18:56:21.280Z,12.73
2022-09-23T18:59:55.622Z,12.70
2022-09-23T19:03:56.633Z,12.68
2022-09-23T19:07:32.293Z,12.67
2022-09-23T19:11:12.012Z,12.66
2022-09-23T19:14:45.892Z,12.62
2022-09-23T19:18:22.439Z,12.60
2022-09-23T19:21:59.353Z,12.58
2022-09-23T19:25:37.080Z,12.54
2022-09-23T19:29:19.785Z,12.51
2022-09-23T19:32:49.933Z,12.47
2022-09-23T19:36:47.372Z,12.47
2022-09-23T19:40:03.364Z,12.45
2022-09-23T19:43:39.886Z,12.42
2022-09-23T19:47:17.743Z,12.41
2022-09-23T19:50:53.652Z,12.38
2022-09-23T19:54:30.736Z,12.35
2022-09-23T19:58:07.785Z,12.31
2022-09-23T20:01:44.295Z,12.29
2022-09-23T20:05:23.532Z,12.24
2022-09-23T20:08:59.482Z,12.21
2022-09-23T20:12:34.700Z,12.20
2022-09-23T20:16:12.304Z,12.19
2022-09-23T20:19:47.974Z,12.18
2022-09-23T20:23:25.012Z,12.16
2022-09-23T20:27:13.907Z,12.14
2022-09-23T20:30:39.520Z,12.11
2022-09-23T20:34:15.260Z,12.07
2022-09-23T20:38:28.714Z,12.02
2022-09-23T20:42:07.118Z,12.01
2022-09-23T20:45:50.551Z,12.01
2022-09-23T20:49:19.833Z,12.00
2022-09-23T20:52:56.661Z,11.99
2022-09-23T20:56:32.252Z,11.97
2022-09-23T21:00:09.358Z,11.95
2022-09-23T21:03:48.193Z,11.94
2022-09-23T21:07:24.171Z,11.93
2022-09-23T21:11:02.780Z,11.90
2022-09-23T21:14:36.444Z,11.88
2022-09-23T21:18:16.265Z,11.85
2022-09-23T21:21:49.773Z,11.78
2022-09-23T21:25:28.402Z,11.74
2022-09-23T21:29:05.618Z,11.72
2022-09-23T21:32:40.302Z,11.66
2022-09-23T21:36:16.911Z,11.60
2022-09-23T21:40:12.395Z,11.55
2022-09-23T21:43:34.292Z,11.51
2022-09-23T21:47:07.524Z,11.49
2022-09-23T21:50:44.290Z,11.50
2022-09-23T21:54:20.684Z,11.49
2022-09-23T21:57:57.772Z,11.48
2022-09-23T22:01:38.446Z,11.47
2022-09-23T22:05:11.281Z,11.46
2022-09-23T22:08:50.022Z,11.45
2022-09-23T22:12:25.010Z,11.45
2022-09-23T22:16:06.406Z,11.43
2022-09-23T22:19:45.895Z,11.41
2022-09-23T22:23:15.342Z,11.39
2022-09-23T22:26:52.242Z,11.35
2022-09-23T22:30:47.242Z,11.30
2022-09-23T22:34:06.575Z,11.28
2022-09-23T22:37:43.032Z,11.26
2022-09-23T22:41:22.619Z,11.24
2022-09-23T22:44:56.185Z,11.22
2022-09-23T22:48:33.490Z,11.22
2022-09-23T22:52:11.401Z,11.21
2022-09-23T22:55:57.821Z,11.21
2022-09-23T22:59:23.465Z,11.21
2022-09-23T23:03:01.337Z,11.22
2022-09-23T23:06:37.342Z,11.22
2022-09-23T23:10:14.519Z,11.22
2022-09-23T23:13:51.152Z,11.19
2022-09-23T23:17:27.639Z,11.17
2022-09-23T23:21:14.225Z,11.17
2022-09-23T23:24:40.798Z,11.18
2022-09-23T23:28:17.762Z,11.21
2022-09-23T23:31:54.969Z,11.22
2022-09-23T23:35:31.467Z,11.26
2022-09-23T23:39:08.629Z,11.28
2022-09-23T23:42:47.301Z,11.31
2022-09-23T23:46:26.682Z,11.35
2022-09-23T23:49:58.807Z,11.37
2022-09-23T23:53:38.780Z,11.37
2022-09-23T23:57:12.516Z,11.37
